Time;durP1;ratioP1;P1;durP2;ratioP2;P2;SDS_P1;SDS_P2;PMS_P1;PMS_P2;Temp;Humidity;BMP_temperature;BMP_pressure;BME280_temperature;BME280_humidity;BME280_pressure;Samples;Min_cycle;Max_cycle;Signal;HPM_P1;HPM_P2
2023/07/02 00:00:21;;;;;;;28.30;17.27;;;21.60;91.70;;;;;;5011914;28;20022;-78
2023/07/02 00:02:47;;;;;;;30.15;17.13;;;21.60;91.70;;;;;;5013306;28;20042;-72
2023/07/02 00:05:12;;;;;;;27.13;17.00;;;21.60;91.70;;;;;;5013202;28;20487;-75
2023/07/02 00:07:38;;;;;;;31.27;17.85;;;21.60;91.80;;;;;;5013147;28;20487;-71
2023/07/02 00:10:04;;;;;;;30.65;17.95;;;21.60;91.80;;;;;;5013174;28;20034;-78
2023/07/02 00:12:29;;;;;;;27.63;17.55;;;21.50;91.70;;;;;;5013094;28;20072;-73
2023/07/02 00:14:55;;;;;;;27.25;18.25;;;21.50;91.80;;;;;;5013265;28;20033;-73
2023/07/02 00:17:21;;;;;;;32.58;18.27;;;21.50;91.80;;;;;;5013033;28;20022;-69
2023/07/02 00:19:46;;;;;;;28.83;17.70;;;21.50;91.80;;;;;;5013269;28;20030;-75
2023/07/02 00:22:12;;;;;;;29.08;17.15;;;21.50;91.80;;;;;;5012762;28;20029;-71
2023/07/02 00:24:38;;;;;;;28.63;18.65;;;21.50;91.90;;;;;;5011897;28;20105;-69
2023/07/02 00:27:04;;;;;;;32.40;19.55;;;21.50;91.90;;;;;;5013277;28;20026;-69
2023/07/02 00:29:29;;;;;;;28.67;18.27;;;21.50;91.90;;;;;;5013054;28;20105;-73
2023/07/02 00:31:55;;;;;;;32.85;19.08;;;21.50;92.00;;;;;;5013010;28;20610;-69
2023/07/02 00:34:20;;;;;;;28.75;18.52;;;21.50;92.00;;;;;;5012988;28;20044;-70
2023/07/02 00:36:46;;;;;;;32.35;19.33;;;21.50;92.10;;;;;;5012734;28;20062;-69
2023/07/02 00:39:12;;;;;;;29.83;18.85;;;21.50;92.10;;;;;;5013001;28;20071;-72
2023/07/02 00:41:38;;;;;;;37.50;19.95;;;21.50;92.10;;;;;;5012994;28;20029;-81
2023/07/02 00:44:04;;;;;;;32.38;19.80;;;21.50;92.20;;;;;;5013071;28;20449;-80
2023/07/02 00:46:30;;;;;;;27.65;18.17;;;21.40;92.20;;;;;;5012805;28;20025;-71
2023/07/02 00:48:56;;;;;;;27.48;18.58;;;21.40;92.20;;;;;;5014648;28;20490;-76
2023/07/02 00:51:27;;;;;;;31.42;19.98;;;21.40;92.30;;;;;;5016279;28;20026;-70
2023/07/02 00:53:54;;;;;;;33.05;20.27;;;21.40;92.30;;;;;;5016665;28;20025;-69
2023/07/02 00:56:21;;;;;;;32.42;19.58;;;21.40;92.30;;;;;;5016349;28;20486;-73
2023/07/02 00:58:50;;;;;;;33.90;19.92;;;21.40;92.40;;;;;;5016541;28;20030;-78
2023/07/02 01:01:16;;;;;;;34.05;20.33;;;21.40;92.40;;;;;;5016241;28;20014;-76
2023/07/02 01:04:00;;;;;;;34.22;21.35;;;21.40;92.50;;;;;;5016438;28;20490;-69
2023/07/02 01:06:30;;;;;;;37.28;21.50;;;21.40;92.50;;;;;;5016014;28;20021;-72
2023/07/02 01:08:57;;;;;;;32.38;20.52;;;21.40;92.50;;;;;;5016293;28;20114;-69
2023/07/02 01:11:33;;;;;;;35.05;19.30;;;21.40;92.60;;;;;;5015942;28;20030;-69
2023/07/02 01:14:07;;;;;;;29.73;19.00;;;21.40;92.60;;;;;;5015059;28;20079;-69
2023/07/02 01:16:35;;;;;;;35.13;20.05;;;21.40;92.70;;;;;;5015953;28;20072;-71
2023/07/02 01:19:04;;;;;;;35.78;21.05;;;21.30;92.70;;;;;;5015885;28;20068;-68
2023/07/02 01:21:34;;;;;;;35.65;21.35;;;21.40;92.80;;;;;;5015746;28;20022;-69
2023/07/02 01:24:00;;;;;;;33.53;19.88;;;21.30;92.80;;;;;;5016132;28;20483;-69
2023/07/02 01:26:33;;;;;;;35.28;21.50;;;21.40;93.00;;;;;;5015788;28;20018;-75
2023/07/02 01:28:59;;;;;;;39.10;21.25;;;21.30;92.90;;;;;;5016297;28;20037;-69
2023/07/02 01:31:25;;;;;;;31.60;21.10;;;21.30;92.90;;;;;;5015842;28;20025;-73
2023/07/02 01:33:52;;;;;;;32.83;20.70;;;21.30;93.00;;;;;;5015659;28;20029;-81
2023/07/02 01:36:18;;;;;;;34.42;19.77;;;21.30;93.00;;;;;;5015654;28;20020;-71
2023/07/02 01:38:43;;;;;;;33.70;20.80;;;21.30;93.10;;;;;;5014439;28;20042;-71
2023/07/02 01:41:09;;;;;;;34.80;20.30;;;21.20;93.00;;;;;;5015715;28;20483;-72
2023/07/02 01:43:34;;;;;;;34.47;20.88;;;21.20;93.10;;;;;;5014474;28;20360;-77
2023/07/02 01:46:01;;;;;;;38.03;20.25;;;21.20;93.10;;;;;;5015554;28;20018;-69
2023/07/02 01:48:27;;;;;;;36.38;21.67;;;21.20;93.20;;;;;;5015188;28;20493;-69
2023/07/02 01:50:53;;;;;;;35.47;21.42;;;21.20;93.30;;;;;;5015412;28;20117;-70
2023/07/02 01:53:18;;;;;;;37.75;21.38;;;21.10;93.30;;;;;;5015393;28;20064;-71
2023/07/02 01:55:44;;;;;;;39.78;22.42;;;21.10;93.30;;;;;;5015421;28;20479;-69
2023/07/02 01:58:09;;;;;;;35.55;22.20;;;21.10;93.40;;;;;;5015323;28;20537;-69
2023/07/02 02:00:36;;;;;;;36.15;20.80;;;21.10;93.50;;;;;;5015112;28;20030;-69
2023/07/02 02:03:01;;;;;;;40.30;21.70;;;21.10;93.50;;;;;;5014977;28;20108;-69
2023/07/02 02:05:27;;;;;;;37.17;22.25;;;21.10;93.50;;;;;;5013985;28;20105;-69
2023/07/02 02:07:52;;;;;;;39.22;21.58;;;21.10;93.50;;;;;;5015079;28;20391;-69
2023/07/02 02:10:18;;;;;;;33.63;20.90;;;21.10;93.60;;;;;;5015309;28;20109;-69
2023/07/02 02:12:43;;;;;;;33.83;21.67;;;21.10;93.60;;;;;;5014956;28;20057;-72
2023/07/02 02:15:10;;;;;;;36.10;21.23;;;21.10;93.60;;;;;;5015254;28;20026;-69
2023/07/02 02:17:36;;;;;;;36.00;22.33;;;21.10;93.70;;;;;;5014205;28;20081;-69
2023/07/02 02:20:03;;;;;;;33.05;20.10;;;21.00;93.70;;;;;;5015004;28;20046;-70
2023/07/02 02:22:29;;;;;;;33.45;20.90;;;21.10;93.80;;;;;;5011814;28;20114;-70
2023/07/02 02:24:54;;;;;;;36.90;20.95;;;21.00;93.80;;;;;;5014838;28;20505;-73
2023/07/02 02:27:20;;;;;;;37.65;21.02;;;21.00;93.90;;;;;;5014716;28;20446;-81
2023/07/02 02:29:45;;;;;;;37.60;21.52;;;21.00;93.90;;;;;;5014889;28;20514;-80
2023/07/02 02:32:11;;;;;;;37.53;21.30;;;21.00;94.00;;;;;;5014337;28;20502;-77
2023/07/02 02:34:36;;;;;;;38.78;21.15;;;21.00;94.00;;;;;;5013488;28;20152;-81
2023/07/02 02:37:02;;;;;;;37.85;22.67;;;21.00;94.00;;;;;;5014613;28;20061;-79
2023/07/02 02:39:27;;;;;;;39.40;22.35;;;21.00;94.10;;;;;;5014414;28;20026;-80
2023/07/02 02:41:53;;;;;;;38.35;22.25;;;21.00;94.20;;;;;;5014375;28;20041;-81
2023/07/02 02:44:19;;;;;;;37.40;21.63;;;20.90;94.20;;;;;;5014537;28;20026;-81
2023/07/02 02:46:44;;;;;;;37.42;21.98;;;20.90;94.20;;;;;;5014209;28;20029;-81
2023/07/02 02:49:10;;;;;;;40.53;22.90;;;20.90;94.20;;;;;;5014377;28;20018;-80
2023/07/02 02:51:35;;;;;;;36.30;21.23;;;20.90;94.30;;;;;;5014205;28;20037;-81
2023/07/02 02:54:01;;;;;;;37.40;22.30;;;20.90;94.30;;;;;;5014322;28;20025;-79
2023/07/02 02:56:26;;;;;;;38.83;22.35;;;20.90;94.30;;;;;;5014185;28;20029;-72
2023/07/02 02:58:52;;;;;;;36.40;22.15;;;20.90;94.40;;;;;;5014342;28;20041;-68
2023/07/02 03:01:17;;;;;;;35.33;22.10;;;20.80;94.40;;;;;;5014190;28;20080;-69
2023/07/02 03:03:44;;;;;;;41.28;22.17;;;20.80;94.70;;;;;;5014079;28;20887;-80
2023/07/02 03:06:11;;;;;;;38.35;23.63;;;20.80;94.50;;;;;;5014165;28;20010;-79
2023/07/02 03:08:37;;;;;;;34.97;22.08;;;20.80;94.60;;;;;;5014231;28;20033;-79
2023/07/02 03:11:02;;;;;;;33.45;21.70;;;20.80;94.60;;;;;;5013790;28;20033;-77
2023/07/02 03:13:28;;;;;;;36.42;21.83;;;20.80;94.60;;;;;;5013807;28;20026;-80
2023/07/02 03:15:53;;;;;;;35.75;21.83;;;20.80;94.70;;;;;;5013807;28;20018;-81
2023/07/02 03:18:19;;;;;;;34.55;22.42;;;20.80;94.60;;;;;;5013810;28;20361;-79
2023/07/02 03:20:44;;;;;;;35.30;23.00;;;20.80;94.70;;;;;;5013928;28;20482;-80
2023/07/02 03:23:10;;;;;;;39.53;22.33;;;20.80;94.70;;;;;;5013700;28;20096;-78
2023/07/02 03:25:35;;;;;;;35.58;22.80;;;20.70;94.70;;;;;;5013656;28;20033;-79
2023/07/02 03:28:01;;;;;;;37.35;23.42;;;20.70;94.70;;;;;;5013512;28;20076;-76
2023/07/02 03:30:26;;;;;;;42.63;23.55;;;20.70;94.80;;;;;;5013079;28;20422;-78
2023/07/02 03:32:52;;;;;;;34.42;21.90;;;20.80;94.80;;;;;;5013734;28;20026;-79
2023/07/02 03:35:17;;;;;;;39.50;22.60;;;20.70;94.80;;;;;;5013621;28;20057;-80
2023/07/02 03:37:43;;;;;;;40.70;22.38;;;20.60;94.90;;;;;;5013645;28;20030;-78
2023/07/02 03:40:09;;;;;;;37.33;23.17;;;20.70;94.90;;;;;;5012020;28;20519;-79
2023/07/02 03:42:35;;;;;;;39.85;22.35;;;20.60;95.00;;;;;;5013459;28;20475;-80
2023/07/02 03:45:00;;;;;;;36.13;21.77;;;20.70;95.00;;;;;;5013160;28;20471;-80
2023/07/02 03:47:26;;;;;;;36.85;22.13;;;20.70;95.10;;;;;;5013590;28;20037;-80
2023/07/02 03:49:51;;;;;;;37.95;23.33;;;20.60;95.00;;;;;;5013401;28;20482;-79
2023/07/02 03:52:17;;;;;;;38.20;23.08;;;20.70;95.10;;;;;;5013717;28;20026;-80
2023/07/02 03:54:42;;;;;;;40.65;22.90;;;20.70;95.10;;;;;;5013243;28;20029;-80
2023/07/02 03:57:08;;;;;;;39.70;22.27;;;20.60;95.10;;;;;;5013449;28;20037;-80
2023/07/02 03:59:34;;;;;;;37.50;23.00;;;20.60;95.20;;;;;;5012925;28;20482;-78
2023/07/02 04:02:00;;;;;;;37.50;22.42;;;20.60;95.10;;;;;;5013418;28;20046;-81
2023/07/02 04:04:26;;;;;;;39.10;22.40;;;20.60;95.20;;;;;;5011839;28;20065;-79
2023/07/02 04:06:51;;;;;;;40.65;23.23;;;20.60;95.20;;;;;;5013132;28;20026;-79
2023/07/02 04:09:18;;;;;;;39.25;23.05;;;20.60;95.30;;;;;;5013146;28;20029;-69
2023/07/02 04:11:44;;;;;;;44.10;23.25;;;20.60;95.30;;;;;;5013411;28;20026;-69
2023/07/02 04:14:09;;;;;;;43.03;22.63;;;20.60;95.30;;;;;;5013065;28;20109;-69
2023/07/02 04:16:35;;;;;;;34.97;22.17;;;20.60;95.30;;;;;;5013109;28;20026;-70
2023/07/02 04:19:00;;;;;;;37.47;21.98;;;20.60;95.40;;;;;;5013102;28;20042;-69
2023/07/02 04:21:26;;;;;;;38.33;22.10;;;20.50;95.30;;;;;;5013283;28;20028;-69
2023/07/02 04:23:51;;;;;;;34.03;21.23;;;20.50;95.30;;;;;;5013586;28;20391;-69
2023/07/02 04:26:17;;;;;;;37.53;22.17;;;20.50;95.30;;;;;;5016878;28;20026;-69
2023/07/02 04:28:43;;;;;;;36.17;22.25;;;20.60;95.40;;;;;;5016721;28;20091;-69
2023/07/02 04:31:08;;;;;;;34.33;22.13;;;20.50;95.30;;;;;;5016960;28;20049;-73
2023/07/02 04:33:35;;;;;;;33.55;21.48;;;20.50;95.30;;;;;;5017072;28;20057;-68
2023/07/02 04:36:02;;;;;;;37.33;20.92;;;20.50;95.30;;;;;;5015619;28;20022;-69
2023/07/02 04:38:28;;;;;;;37.60;22.15;;;20.50;95.30;;;;;;5016944;28;20053;-69
2023/07/02 04:40:53;;;;;;;41.15;21.58;;;20.50;95.30;;;;;;5016363;28;20037;-80
2023/07/02 04:43:19;;;;;;;40.70;23.40;;;20.50;95.30;;;;;;5016652;28;20029;-82
2023/07/02 04:45:45;;;;;;;33.20;21.27;;;20.50;95.30;;;;;;5016753;28;20141;-81
2023/07/02 04:48:10;;;;;;;37.22;21.48;;;20.50;95.20;;;;;;5016662;28;20018;-79
2023/07/02 04:50:36;;;;;;;35.85;21.73;;;20.50;95.30;;;;;;5016440;28;20387;-80
2023/07/02 04:53:02;;;;;;;33.40;20.88;;;20.50;95.30;;;;;;5016685;28;20076;-80
2023/07/02 04:55:27;;;;;;;39.78;22.02;;;20.50;95.30;;;;;;5016546;28;20033;-80
2023/07/02 04:57:53;;;;;;;40.17;20.90;;;20.50;95.30;;;;;;5016230;28;20065;-81
2023/07/02 05:00:18;;;;;;;35.50;21.35;;;20.50;95.30;;;;;;5016436;28;20025;-81
2023/07/02 05:02:44;;;;;;;34.35;21.67;;;20.50;95.40;;;;;;5016532;28;20442;-79
2023/07/02 05:05:09;;;;;;;33.20;21.90;;;20.50;95.30;;;;;;5015036;28;20026;-71
2023/07/02 05:07:35;;;;;;;39.78;22.45;;;20.50;95.30;;;;;;5016212;28;20022;-69
2023/07/02 05:10:01;;;;;;;36.58;21.42;;;20.50;95.30;;;;;;5016025;28;20479;-71
2023/07/02 05:12:26;;;;;;;33.97;21.83;;;20.50;95.30;;;;;;5015862;28;20029;-69
2023/07/02 05:14:52;;;;;;;34.40;20.55;;;20.50;95.30;;;;;;5008523;28;20017;-68
2023/07/02 05:17:17;;;;;;;32.38;20.02;;;20.40;95.60;;;;;;5004205;28;20042;-76
2023/07/02 05:19:43;;;;;;;37.30;22.15;;;20.50;95.30;;;;;;5013542;28;20022;-75
2023/07/02 05:22:09;;;;;;;38.92;21.20;;;20.50;95.20;;;;;;5012627;28;20502;-68
2023/07/02 05:24:34;;;;;;;37.78;21.15;;;20.50;95.30;;;;;;5004562;28;20023;-70
2023/07/02 05:27:00;;;;;;;38.90;21.95;;;20.50;95.30;;;;;;4995881;28;20022;-73
2023/07/02 05:29:25;;;;;;;36.42;21.55;;;20.50;95.60;;;;;;5004269;28;20026;-68
2023/07/02 05:31:51;;;;;;;34.03;21.23;;;20.50;95.30;;;;;;4999291;28;20033;-76
2023/07/02 05:34:17;;;;;;;39.67;21.88;;;20.50;95.50;;;;;;5014779;28;20080;-71
2023/07/02 05:36:42;;;;;;;32.25;19.35;;;20.50;95.20;;;;;;5012613;28;20101;-70
2023/07/02 05:39:08;;;;;;;37.55;20.25;;;20.50;95.20;;;;;;4996432;28;20058;-75
2023/07/02 05:41:33;;;;;;;35.40;20.13;;;20.50;95.20;;;;;;5001842;28;20037;-69
2023/07/02 05:44:00;;;;;;;34.65;21.35;;;20.50;95.00;;;;;;5012376;28;20026;-73
2023/07/02 05:46:25;;;;;;;31.40;20.02;;;20.50;95.10;;;;;;4999524;28;20038;-79
2023/07/02 05:48:51;;;;;;;32.80;20.88;;;20.50;95.00;;;;;;5001015;28;20094;-83
2023/07/02 05:51:21;;;;;;;28.45;17.95;;;20.50;95.00;;;;;;5000703;28;20030;-75
2023/07/02 05:53:47;;;;;;;29.90;17.98;;;20.50;95.10;;;;;;5004377;28;20057;-74
2023/07/02 05:56:12;;;;;;;26.60;16.80;;;20.60;95.10;;;;;;5015134;28;20550;-79
2023/07/02 05:58:38;;;;;;;27.17;17.98;;;20.60;95.10;;;;;;5009394;28;20395;-74
2023/07/02 06:01:05;;;;;;;27.80;17.65;;;20.60;95.20;;;;;;5004791;28;20034;-78
2023/07/02 06:03:31;;;;;;;24.40;16.80;;;20.60;95.00;;;;;;5010174;28;20041;-80
2023/07/02 06:05:56;;;;;;;27.55;16.92;;;20.70;95.00;;;;;;5004807;28;20023;-76
2023/07/02 06:08:22;;;;;;;23.98;16.15;;;20.70;95.00;;;;;;5020580;28;20034;-78
2023/07/02 06:10:48;;;;;;;26.08;16.42;;;20.70;95.00;;;;;;5010284;28;20049;-67
2023/07/02 06:13:14;;;;;;;25.77;16.33;;;20.70;94.90;;;;;;5008268;28;20526;-68
2023/07/02 06:15:40;;;;;;;24.08;15.60;;;20.70;94.70;;;;;;5001999;28;20025;-79
2023/07/02 06:18:06;;;;;;;26.52;16.38;;;20.70;94.80;;;;;;5011863;28;20037;-80
2023/07/02 06:20:31;;;;;;;22.52;14.25;;;20.70;94.80;;;;;;5013322;28;20014;-80
2023/07/02 06:22:57;;;;;;;27.40;15.18;;;20.80;94.60;;;;;;5010537;28;20505;-80
2023/07/02 06:25:23;;;;;;;26.27;14.02;;;20.80;94.70;;;;;;5011290;28;20029;-79
2023/07/02 06:27:48;;;;;;;21.23;13.65;;;20.80;94.60;;;;;;5012989;28;20030;-74
2023/07/02 06:30:14;;;;;;;22.52;14.63;;;20.80;94.20;;;;;;5010222;28;20392;-73
2023/07/02 06:32:40;;;;;;;24.50;13.63;;;20.80;94.30;;;;;;5009525;28;20386;-72
2023/07/02 06:35:08;;;;;;;24.10;13.25;;;20.80;94.20;;;;;;5013807;28;20553;-80
2023/07/02 06:37:34;;;;;;;17.50;11.20;;;20.80;93.80;;;;;;5013331;28;20037;-80
2023/07/02 06:39:59;;;;;;;23.60;12.80;;;20.80;93.40;;;;;;5001309;28;20022;-67
2023/07/02 06:42:26;;;;;;;20.33;11.77;;;20.80;93.60;;;;;;5011160;28;20040;-66
2023/07/02 06:44:51;;;;;;;18.38;11.93;;;20.80;93.50;;;;;;5011410;28;20026;-71
2023/07/02 06:47:17;;;;;;;16.13;9.23;;;20.80;93.10;;;;;;5006918;28;20117;-67
2023/07/02 06:49:43;;;;;;;16.80;9.18;;;20.80;92.30;;;;;;5003258;28;20042;-67
2023/07/02 06:52:08;;;;;;;18.13;10.60;;;20.80;92.40;;;;;;5007533;28;20053;-68
2023/07/02 06:54:34;;;;;;;17.27;10.85;;;20.80;92.80;;;;;;5005242;28;20030;-78
2023/07/02 06:57:00;;;;;;;14.00;6.65;;;20.90;92.70;;;;;;5012251;28;20076;-75
2023/07/02 06:59:26;;;;;;;17.52;8.30;;;20.90;90.40;;;;;;5009541;28;20091;-75
2023/07/02 07:01:52;;;;;;;22.85;8.95;;;20.90;90.70;;;;;;4999313;28;20037;-75
2023/07/02 07:04:17;;;;;;;17.90;9.20;;;20.90;91.40;;;;;;5010823;28;20041;-74
2023/07/02 07:06:43;;;;;;;16.48;8.65;;;20.90;92.10;;;;;;5009446;28;20505;-75
2023/07/02 07:09:09;;;;;;;17.95;9.27;;;20.90;91.80;;;;;;5010627;28;20034;-75
2023/07/02 07:11:35;;;;;;;14.73;9.07;;;20.90;92.30;;;;;;5011398;28;20045;-74
2023/07/02 07:14:01;;;;;;;18.25;9.60;;;21.00;92.40;;;;;;5007400;28;20145;-76
2023/07/02 07:16:26;;;;;;;14.93;9.25;;;21.00;92.60;;;;;;5008354;28;20431;-75
2023/07/02 07:18:52;;;;;;;14.77;9.95;;;21.00;92.60;;;;;;5010529;28;20041;-74
2023/07/02 07:21:17;;;;;;;17.92;10.02;;;21.00;93.00;;;;;;5011374;28;20478;-72
2023/07/02 07:23:43;;;;;;;21.15;10.35;;;21.00;92.80;;;;;;5011137;28;20034;-73
2023/07/02 07:26:09;;;;;;;15.80;8.27;;;21.00;93.10;;;;;;5011541;28;20069;-73
2023/07/02 07:28:34;;;;;;;14.60;8.35;;;21.00;93.00;;;;;;5007184;28;20037;-76
2023/07/02 07:31:00;;;;;;;22.70;11.82;;;21.00;92.20;;;;;;5003715;28;20427;-73
2023/07/02 07:33:25;;;;;;;21.92;10.77;;;21.00;93.00;;;;;;5012366;28;20390;-69
2023/07/02 07:35:51;;;;;;;19.80;12.25;;;21.00;92.90;;;;;;4998141;28;20266;-70
2023/07/02 07:38:16;;;;;;;27.52;15.57;;;21.00;92.40;;;;;;5001928;28;20070;-72
2023/07/02 07:40:43;;;;;;;21.13;12.05;;;21.10;93.60;;;;;;4999962;28;20471;-76
2023/07/02 07:43:08;;;;;;;16.10;8.32;;;21.10;92.90;;;;;;5012512;28;20033;-73
2023/07/02 07:45:34;;;;;;;11.95;5.93;;;21.10;91.40;;;;;;5005864;28;20379;-74
2023/07/02 07:48:00;;;;;;;21.67;12.30;;;21.10;90.20;;;;;;5001402;28;20022;-68
2023/07/02 07:50:26;;;;;;;11.88;6.30;;;21.10;92.40;;;;;;5004092;28;20483;-70
2023/07/02 07:52:51;;;;;;;13.48;6.15;;;21.10;90.30;;;;;;5002336;28;20042;-73
2023/07/02 07:55:17;;;;;;;13.23;5.63;;;21.20;88.10;;;;;;4996120;28;20018;-68
2023/07/02 07:57:43;;;;;;;13.90;7.65;;;21.20;89.40;;;;;;5010010;28;20499;-68
2023/07/02 08:00:11;;;;;;;14.30;7.82;;;21.20;90.60;;;;;;5012322;28;20036;-68
2023/07/02 08:02:37;;;;;;;11.40;6.22;;;21.20;90.70;;;;;;5010157;28;20030;-67
2023/07/02 08:05:04;;;;;;;9.65;6.20;;;21.30;90.00;;;;;;5010210;28;20118;-69
2023/07/02 08:07:31;;;;;;;13.23;6.78;;;21.30;90.40;;;;;;5010567;28;20084;-69
2023/07/02 08:09:57;;;;;;;12.13;6.22;;;21.30;90.10;;;;;;5006064;28;20063;-73
2023/07/02 08:12:22;;;;;;;13.18;5.80;;;21.30;89.00;;;;;;5003213;28;20040;-71
2023/07/02 08:14:49;;;;;;;12.77;5.82;;;21.30;88.00;;;;;;5010621;28;20037;-75
2023/07/02 08:17:15;;;;;;;13.13;6.72;;;21.40;87.70;;;;;;5008518;28;20042;-71
2023/07/02 08:19:40;;;;;;;12.75;5.95;;;21.30;88.30;;;;;;5012802;28;20360;-77
2023/07/02 08:22:06;;;;;;;14.45;6.65;;;21.40;88.90;;;;;;5011123;28;20466;-73
2023/07/02 08:24:32;;;;;;;13.40;6.03;;;21.40;89.70;;;;;;5012215;28;20066;-70
2023/07/02 08:26:58;;;;;;;10.75;4.75;;;21.40;88.60;;;;;;5012770;28;20056;-71
2023/07/02 08:29:23;;;;;;;13.50;5.53;;;21.40;88.50;;;;;;5003315;28;20031;-71
2023/07/02 08:31:49;;;;;;;14.25;5.82;;;21.40;89.20;;;;;;5007496;28;20018;-74
2023/07/02 08:34:15;;;;;;;12.90;5.45;;;21.40;89.30;;;;;;5009356;28;20091;-77
2023/07/02 08:36:40;;;;;;;15.85;6.15;;;21.50;89.20;;;;;;5012170;28;20053;-73
2023/07/02 08:39:06;;;;;;;18.63;7.00;;;21.40;88.80;;;;;;5012480;28;20052;-76
2023/07/02 08:41:43;;;;;;;10.00;5.90;;;21.50;88.90;;;;;;5012408;28;20486;-76
2023/07/02 08:44:09;;;;;;;13.00;5.70;;;21.50;88.80;;;;;;5000450;28;20026;-75
2023/07/02 08:46:35;;;;;;;14.50;5.90;;;21.50;88.60;;;;;;5000180;28;20030;-73
2023/07/02 08:49:01;;;;;;;15.35;7.07;;;21.50;88.30;;;;;;5006689;28;20026;-73
2023/07/02 08:51:26;;;;;;;13.38;6.45;;;21.50;88.20;;;;;;5011545;28;20026;-75
2023/07/02 08:53:52;;;;;;;14.05;6.07;;;21.60;87.90;;;;;;4998080;28;20025;-74
2023/07/02 08:56:18;;;;;;;15.88;6.45;;;21.60;88.10;;;;;;5003710;28;20038;-74
2023/07/02 08:58:44;;;;;;;14.32;6.50;;;21.60;87.90;;;;;;5008044;28;20038;-74
2023/07/02 09:01:12;;;;;;;19.20;7.75;;;21.60;87.90;;;;;;5000307;28;20102;-75
2023/07/02 09:03:39;;;;;;;19.20;7.28;;;21.60;87.80;;;;;;5003281;28;20375;-74
2023/07/02 09:06:09;;;;;;;15.73;7.13;;;21.70;87.90;;;;;;5011514;28;20102;-74
2023/07/02 09:08:35;;;;;;;14.88;7.18;;;21.70;87.80;;;;;;5009479;28;20054;-75
2023/07/02 09:11:08;;;;;;;15.38;7.38;;;21.70;87.70;;;;;;4998135;28;20030;-75
2023/07/02 09:13:44;;;;;;;14.30;7.18;;;21.70;87.70;;;;;;5005358;28;20050;-75
2023/07/02 09:16:28;;;;;;;18.35;7.25;;;21.80;87.60;;;;;;4997083;28;20052;-75
2023/07/02 09:19:03;;;;;;;17.05;7.78;;;21.80;87.40;;;;;;5008191;28;20057;-74
2023/07/02 09:21:42;;;;;;;13.32;8.13;;;21.80;87.30;;;;;;5012243;28;20014;-74
2023/07/02 09:24:19;;;;;;;14.45;7.32;;;21.80;87.30;;;;;;5002701;28;20117;-73
2023/07/02 09:26:50;;;;;;;17.33;8.40;;;21.80;87.50;;;;;;5013860;28;20032;-74
2023/07/02 09:29:23;;;;;;;14.30;7.78;;;21.80;87.20;;;;;;5002112;28;20025;-74
2023/07/02 09:31:49;;;;;;;13.63;7.50;;;21.90;87.30;;;;;;4997702;28;20046;-75
2023/07/02 09:34:15;;;;;;;16.05;8.95;;;21.90;87.10;;;;;;5001844;28;20073;-73
2023/07/02 09:36:42;;;;;;;22.45;9.32;;;21.90;87.00;;;;;;5003415;28;20499;-73
2023/07/02 09:39:18;;;;;;;16.13;8.50;;;21.90;86.70;;;;;;5006281;28;20531;-75
2023/07/02 09:41:45;;;;;;;16.75;8.98;;;21.90;86.90;;;;;;5009042;28;20030;-75
2023/07/02 09:44:13;;;;;;;15.48;8.32;;;21.90;86.80;;;;;;5004742;28;20049;-75
2023/07/02 09:46:52;;;;;;;20.45;9.82;;;21.90;86.70;;;;;;5001685;28;20025;-74
2023/07/02 09:49:20;;;;;;;16.70;8.38;;;21.90;86.40;;;;;;5012179;28;20022;-74
2023/07/02 09:51:46;;;;;;;19.70;9.00;;;22.00;86.10;;;;;;5013955;28;20037;-75
2023/07/02 09:54:13;;;;;;;15.50;9.15;;;21.90;86.20;;;;;;5011854;28;20018;-75
2023/07/02 09:56:39;;;;;;;19.50;9.43;;;22.00;85.90;;;;;;5013586;28;20034;-74
2023/07/02 09:59:05;;;;;;;15.40;8.68;;;22.00;85.90;;;;;;5013393;28;20582;-76
2023/07/02 10:01:31;;;;;;;17.35;8.57;;;22.00;85.90;;;;;;5004416;28;20097;-76
2023/07/02 10:03:57;;;;;;;16.50;8.30;;;22.10;85.00;;;;;;5011909;28;20032;-76
2023/07/02 10:06:22;;;;;;;19.02;9.05;;;22.00;85.20;;;;;;5026982;28;20037;-76
2023/07/02 10:08:55;;;;;;;14.63;7.93;;;22.10;85.20;;;;;;5010284;28;20474;-75
2023/07/02 10:11:32;;;;;;;18.02;8.90;;;22.10;84.60;;;;;;5003465;28;20034;-76
2023/07/02 10:13:59;;;;;;;16.30;8.70;;;22.10;84.60;;;;;;5008229;28;20026;-77
2023/07/02 10:16:27;;;;;;;14.95;7.43;;;22.10;85.10;;;;;;5000142;28;20018;-77
2023/07/02 10:18:53;;;;;;;14.68;7.88;;;22.10;84.90;;;;;;5004215;28;20391;-76
2023/07/02 10:21:19;;;;;;;12.13;7.63;;;22.10;85.00;;;;;;4999724;28;20487;-76
2023/07/02 10:23:45;;;;;;;16.08;8.95;;;22.10;84.60;;;;;;5002392;28;20033;-74
2023/07/02 10:26:16;;;;;;;15.15;7.93;;;22.20;84.30;;;;;;4999760;28;20383;-74
2023/07/02 10:28:42;;;;;;;12.95;7.38;;;22.20;83.90;;;;;;5009929;28;20113;-75
2023/07/02 10:31:21;;;;;;;14.15;7.10;;;22.20;83.80;;;;;;5001931;28;20023;-75
2023/07/02 10:33:47;;;;;;;13.68;7.68;;;22.20;84.10;;;;;;4999741;28;20034;-75
2023/07/02 10:36:24;;;;;;;11.68;6.88;;;22.20;82.50;;;;;;5000945;28;20428;-75
2023/07/02 10:38:50;;;;;;;14.75;7.57;;;22.20;82.70;;;;;;5006486;28;20034;-75
2023/07/02 10:41:30;;;;;;;12.13;6.72;;;22.20;82.90;;;;;;5006331;28;20089;-74
2023/07/02 10:44:11;;;;;;;13.00;6.63;;;22.30;83.20;;;;;;5006582;28;20495;-75
2023/07/02 10:46:44;;;;;;;12.10;6.50;;;22.30;82.40;;;;;;4995020;28;20407;-75
2023/07/02 10:49:11;;;;;;;15.85;7.90;;;22.30;82.50;;;;;;5005914;28;20080;-74
2023/07/02 10:51:37;;;;;;;11.95;6.45;;;22.30;82.50;;;;;;5006853;28;20573;-74
2023/07/02 10:54:04;;;;;;;16.70;7.05;;;22.30;82.50;;;;;;4998691;28;20026;-75
2023/07/02 10:56:32;;;;;;;14.18;6.78;;;22.30;82.60;;;;;;5007243;28;20030;-75
2023/07/02 10:58:57;;;;;;;15.00;6.78;;;22.30;81.90;;;;;;4999370;28;20033;-73
2023/07/02 11:01:30;;;;;;;12.85;7.43;;;22.30;82.80;;;;;;5001309;28;20442;-75
2023/07/02 11:04:05;;;;;;;15.45;6.68;;;22.40;84.00;;;;;;5005412;28;20088;-75
2023/07/02 11:06:33;;;;;;;13.27;7.20;;;22.40;83.70;;;;;;4995357;28;20112;-75
2023/07/02 11:08:59;;;;;;;13.13;6.32;;;22.40;83.80;;;;;;4993710;28;20041;-77
2023/07/02 11:11:25;;;;;;;13.18;6.65;;;22.40;83.10;;;;;;5002261;28;20076;-75
2023/07/02 11:13:52;;;;;;;14.45;6.38;;;22.50;84.00;;;;;;4993794;28;20024;-77
2023/07/02 11:16:29;;;;;;;12.15;6.40;;;22.40;83.60;;;;;;5017774;28;20036;-75
2023/07/02 11:19:08;;;;;;;11.77;5.45;;;22.50;83.90;;;;;;5000603;28;20034;-72
2023/07/02 11:21:34;;;;;;;12.00;5.90;;;22.50;83.40;;;;;;5001092;28;20105;-74
2023/07/02 11:24:08;;;;;;;16.15;6.40;;;22.50;82.10;;;;;;5000558;28;20075;-76
2023/07/02 11:26:40;;;;;;;11.95;5.60;;;22.50;82.40;;;;;;4996848;28;20028;-75
2023/07/02 11:29:18;;;;;;;11.15;5.85;;;22.50;79.80;;;;;;5000351;28;20068;-77
2023/07/02 11:31:44;;;;;;;12.75;6.78;;;22.60;81.90;;;;;;5006180;28;20038;-75
2023/07/02 11:34:23;;;;;;;13.95;6.60;;;22.60;81.20;;;;;;5011154;28;20041;-75
2023/07/02 11:36:50;;;;;;;13.52;6.78;;;22.60;80.90;;;;;;4995004;28;20026;-76
2023/07/02 11:39:15;;;;;;;11.93;6.50;;;22.60;80.70;;;;;;5010817;28;20041;-76
2023/07/02 11:41:43;;;;;;;12.20;6.15;;;22.60;80.90;;;;;;5008344;28;20030;-71
2023/07/02 11:44:09;;;;;;;11.85;6.63;;;22.60;81.00;;;;;;5000262;28;20030;-72
2023/07/02 11:46:35;;;;;;;16.67;5.93;;;22.60;80.70;;;;;;4993356;28;20313;-74
2023/07/02 11:49:02;;;;;;;12.35;5.82;;;22.60;80.70;;;;;;5007268;28;20438;-73
2023/07/02 11:51:27;;;;;;;16.98;6.38;;;22.60;79.90;;;;;;5003339;28;20033;-75
2023/07/02 11:53:53;;;;;;;13.05;6.07;;;22.60;79.80;;;;;;5010595;28;20405;-77
2023/07/02 11:56:19;;;;;;;10.00;5.68;;;22.70;80.00;;;;;;5002872;28;20030;-75
2023/07/02 11:58:44;;;;;;;16.88;6.00;;;22.70;79.80;;;;;;4996433;28;20430;-73
2023/07/02 12:01:10;;;;;;;12.45;5.63;;;22.70;80.10;;;;;;5001565;28;20108;-77
2023/07/02 12:03:36;;;;;;;12.15;5.93;;;22.70;80.40;;;;;;5004508;28;20146;-75
2023/07/02 12:06:01;;;;;;;12.25;6.13;;;22.70;80.60;;;;;;5002337;28;20041;-77
2023/07/02 12:08:27;;;;;;;12.63;6.13;;;22.80;80.50;;;;;;5009802;28;20038;-76
2023/07/02 12:10:53;;;;;;;12.00;5.53;;;22.70;80.50;;;;;;4997312;28;20070;-78
2023/07/02 12:13:20;;;;;;;11.70;6.05;;;22.80;78.60;;;;;;5000423;28;20490;-75
2023/07/02 12:15:48;;;;;;;10.23;5.28;;;22.70;79.50;;;;;;5003503;28;20018;-75
2023/07/02 12:18:13;;;;;;;10.77;5.55;;;22.80;78.30;;;;;;4998616;28;20030;-72
2023/07/02 12:20:42;;;;;;;13.65;5.95;;;22.80;78.70;;;;;;4997947;28;20022;-73
2023/07/02 12:23:09;;;;;;;10.02;5.40;;;22.80;78.80;;;;;;5010797;28;20172;-73
2023/07/02 12:25:35;;;;;;;14.13;5.15;;;22.80;78.20;;;;;;4998848;28;20169;-72
2023/07/02 12:28:02;;;;;;;12.23;5.72;;;22.80;77.40;;;;;;5001321;28;20113;-73